^^
Datos históricos de la estación: Murcia-Puente Tocinos
Diario Informe para Marzo 15, 2019 Unidades:  Ambas    Ingés   Métrico
Diario Semanal Mensual Anual
  Máxima: Mínima: Promedio:
Temperatura: 92.1 °F /  33.4 °C 72.1 °F /  22.3 °C 81.3 °F /  27.4 °C
Punto de rocio: 71.2 °F /  21.8 °C 61 °F /  16.1 °C 67.1 °F /  19.5 °C
Humedad: 88% 36% 65%
Velocidad viento: 12.5mph /  20.1km/h - 5mph /  8.1km/h
Racha viento: 21mph /  33.8km/h - -
Viento- - Este
Presión: 30 in /  1017.0 hPa 29.9 in /  1014.0 hPa -
Precipitación: 0 in /  0.0 mm    
 
 
Tabla de datos para Marzo 15, 2019
Hora Temperatura Punto de rocio Presión Viento Velocidad viento Racha viento Humedad Intensidad lluvia(por hora) Nubes
00:04 76.8 °F /  24.9 °C 70.9 °F /  21.6 °C 30in /  1016.3hPa NE 7.4mph /  11.9km/h 12mph /  19.3km/h 81.8% 0in /  0.0mm
00:09 76.8 °F /  24.9 °C 70.9 °F /  21.6 °C 30in /  1016.3hPa NNE 7.1mph /  11.5km/h 10mph /  16.1km/h 82% 0in /  0.0mm
00:14 76.8 °F /  24.9 °C 70.9 °F /  21.6 °C 30in /  1016.3hPa NE 6.4mph /  10.3km/h 10mph /  16.1km/h 82% 0in /  0.0mm
00:19 76.6 °F /  24.8 °C 71.1 °F /  21.7 °C 30in /  1016.3hPa NE 6mph /  9.6km/h 7.6mph /  12.2km/h 82.6% 0in /  0.0mm
00:24 76.6 °F /  24.8 °C 71.1 °F /  21.7 °C 30in /  1016.3hPa NE 4.7mph /  7.6km/h 8.1mph /  13km/h 83% 0in /  0.0mm
00:29 76.6 °F /  24.8 °C 71.1 °F /  21.7 °C 30in /  1016.3hPa NE 4.5mph /  7.3km/h 7.4mph /  11.9km/h 83% 0in /  0.0mm
00:34 76.6 °F /  24.8 °C 71.1 °F /  21.7 °C 30in /  1016.3hPa NNE 4mph /  6.5km/h 7.4mph /  11.9km/h 83% 0in /  0.0mm
00:39 76.5 °F /  24.7 °C 71.1 °F /  21.7 °C 30in /  1016.3hPa NNE 4.2mph /  6.8km/h 8.1mph /  13km/h 83.5% 0in /  0.0mm
00:44 76.5 °F /  24.7 °C 71.2 °F /  21.8 °C 30in /  1016.3hPa NE 4.7mph /  7.6km/h 8mph /  12.9km/h 84% 0in /  0.0mm
00:49 76.3 °F /  24.6 °C 71.1 °F /  21.7 °C 30in /  1016.3hPa NNE 4.6mph /  7.4km/h 8.1mph /  13km/h 84% 0in /  0.0mm
00:54 76.3 °F /  24.6 °C 71.1 °F /  21.7 °C 30in /  1016.3hPa NE 4.3mph /  6.9km/h 8mph /  12.9km/h 84% 0in /  0.0mm
00:59 76.1 °F /  24.5 °C 70.9 °F /  21.6 °C 30in /  1016.3hPa NE 4.3mph /  6.9km/h 7.4mph /  11.9km/h 84% 0in /  0.0mm
01:04 75.9 °F /  24.4 °C 70.7 °F /  21.5 °C 30in /  1016.4hPa NNE 4.3mph /  6.9km/h 7mph /  11.3km/h 84.2% 0in /  0.0mm
01:09 75.9 °F /  24.4 °C 71.1 °F /  21.7 °C 30in /  1016.4hPa NNE 4.4mph /  7.1km/h 7mph /  11.3km/h 85% 0in /  0.0mm
01:14 75.7 °F /  24.3 °C 70.9 °F /  21.6 °C 30in /  1016.4hPa NNE 4.7mph /  7.6km/h 7.4mph /  11.9km/h 85% 0in /  0.0mm
01:19 75.7 °F /  24.3 °C 70.9 °F /  21.6 °C 30in /  1016.4hPa NNE 4.7mph /  7.6km/h 7mph /  11.3km/h 85% 0in /  0.0mm
01:24 75.7 °F /  24.3 °C 70.9 °F /  21.6 °C 30in /  1016.2hPa NE 4.7mph /  7.6km/h 7mph /  11.3km/h 85% 0in /  0.0mm
01:29 75.7 °F /  24.3 °C 71.2 °F /  21.8 °C 30in /  1016.2hPa NE 4.6mph /  7.4km/h 7mph /  11.3km/h 85.7% 0in /  0.0mm
01:34 75.7 °F /  24.3 °C 71.2 °F /  21.8 °C 30in /  1016.3hPa NE 4.3mph /  6.9km/h 7.6mph /  12.2km/h 86% 0in /  0.0mm
01:39 75.7 °F /  24.3 °C 71.2 °F /  21.8 °C 30in /  1016.3hPa NE 4.3mph /  6.9km/h 8.1mph /  13km/h 86% 0in /  0.0mm
01:44 75.7 °F /  24.3 °C 71.2 °F /  21.8 °C 30in /  1016.3hPa NE 4.3mph /  6.9km/h 7mph /  11.3km/h 86% 0in /  0.0mm
01:49 75.7 °F /  24.3 °C 71.2 °F /  21.8 °C 30in /  1016.3hPa NE 4mph /  6.4km/h 6mph /  9.7km/h 85.7% 0in /  0.0mm
01:54 75.7 °F /  24.3 °C 70.9 °F /  21.6 °C 30in /  1016.2hPa NE 3.1mph /  5km/h 5mph /  8km/h 85% 0in /  0.0mm
01:59 75.7 °F /  24.3 °C 70.9 °F /  21.6 °C 30in /  1016.2hPa NE 3mph /  4.9km/h 5.8mph /  9.3km/h 85% 0in /  0.0mm
02:04 75.7 °F /  24.3 °C 70.9 °F /  21.6 °C 30in /  1016.2hPa NE 2.9mph /  4.6km/h 6mph /  9.7km/h 85% 0in /  0.0mm
02:09 75.7 °F /  24.3 °C 70.9 °F /  21.6 °C 30in /  1016.2hPa NNE 2.9mph /  4.7km/h 6mph /  9.7km/h 85% 0in /  0.0mm
02:14 75.6 °F /  24.2 °C 70.7 °F /  21.5 °C 30in /  1016.2hPa NNE 2.9mph /  4.7km/h 5.2mph /  8.4km/h 85% 0in /  0.0mm
02:19 75.6 °F /  24.2 °C 70.9 °F /  21.6 °C 30in /  1016.2hPa NE 2.9mph /  4.7km/h 5.2mph /  8.4km/h 85.6% 0in /  0.0mm
02:24 75.6 °F /  24.2 °C 71.1 °F /  21.7 °C 30in /  1016.0hPa NE 3.1mph /  5km/h 5mph /  8km/h 86% 0in /  0.0mm
02:29 75.6 °F /  24.2 °C 71.1 °F /  21.7 °C 30in /  1016.0hPa NE 3.1mph /  5km/h 5.2mph /  8.4km/h 86% 0in /  0.0mm
02:34 75.4 °F /  24.1 °C 70.9 °F /  21.6 °C 30in /  1016.0hPa NE 3.1mph /  5km/h 5.2mph /  8.4km/h 86% 0in /  0.0mm
02:39 75.4 °F /  24.1 °C 70.9 °F /  21.6 °C 30in /  1016.0hPa NE 3.1mph /  5km/h 5.8mph /  9.3km/h 86% 0in /  0.0mm
02:44 75.4 °F /  24.1 °C 70.9 °F /  21.6 °C 30in /  1016.0hPa NE 3.1mph /  5km/h 6mph /  9.7km/h 86% 0in /  0.0mm
02:49 75.4 °F /  24.1 °C 70.9 °F /  21.6 °C 30in /  1016.0hPa NE 3.2mph /  5.2km/h 6mph /  9.7km/h 86% 0in /  0.0mm
02:54 75.2 °F /  24 °C 70.7 °F /  21.5 °C 30in /  1015.9hPa NE 3.6mph /  5.8km/h 5mph /  8km/h 86% 0in /  0.0mm
02:59 75.4 °F /  24.1 °C 70.9 °F /  21.6 °C 30in /  1015.9hPa NE 3.2mph /  5.2km/h 5mph /  8km/h 86% 0in /  0.0mm
03:04 75.4 °F /  24.1 °C 70.9 °F /  21.6 °C 30in /  1015.9hPa NE 2.4mph /  3.9km/h 5mph /  8km/h 86% 0in /  0.0mm
03:09 75.2 °F /  24 °C 70.9 °F /  21.6 °C 30in /  1015.8hPa NE 2.6mph /  4.2km/h 5mph /  8km/h 86.1% 0in /  0.0mm
03:14 75.2 °F /  24 °C 71.1 °F /  21.7 °C 30in /  1015.8hPa NE 3.1mph /  5km/h 5mph /  8km/h 87% 0in /  0.0mm
03:19 75.2 °F /  24 °C 71.1 °F /  21.7 °C 30in /  1015.8hPa NE 2.9mph /  4.6km/h 5mph /  8km/h 86.8% 0in /  0.0mm
03:24 75 °F /  23.9 °C 70.5 °F /  21.4 °C 30in /  1015.8hPa NNE 2mph /  3.2km/h 4.6mph /  7.4km/h 86% 0in /  0.0mm
03:29 75 °F /  23.9 °C 70.9 °F /  21.6 °C 30in /  1015.8hPa NNE 1.9mph /  3.1km/h 5mph /  8km/h 87% 0in /  0.0mm
03:34 75 °F /  23.9 °C 70.9 °F /  21.6 °C 30in /  1015.8hPa NNE 1.8mph /  2.9km/h 2.3mph /  3.7km/h 87% 0in /  0.0mm
03:39 74.8 °F /  23.8 °C 70.7 °F /  21.5 °C 30in /  1015.8hPa NNE 1.4mph /  2.2km/h 2mph /  3.2km/h 87% 0in /  0.0mm
03:44 74.8 °F /  23.8 °C 70.7 °F /  21.5 °C 30in /  1015.8hPa Calm   3.5mph /  5.6km/h 87% 0in /  0.0mm
03:49 74.7 °F /  23.7 °C 70.5 °F /  21.4 °C 30in /  1015.8hPa NNO 0.4mph /  0.6km/h 3.6mph /  5.8km/h 87.2% 0in /  0.0mm
03:54 74.7 °F /  23.7 °C 70.9 °F /  21.6 °C 30in /  1015.8hPa NNO 1.4mph /  2.2km/h 4mph /  6.4km/h 88% 0in /  0.0mm
03:59 74.7 °F /  23.7 °C 70.9 °F /  21.6 °C 30in /  1015.8hPa NNO 1.5mph /  2.4km/h 3mph /  4.8km/h 88% 0in /  0.0mm
04:04 74.7 °F /  23.7 °C 70.9 °F /  21.6 °C 30in /  1015.8hPa NNE 1.8mph /  2.9km/h 3mph /  4.8km/h 88% 0in /  0.0mm
04:09 74.7 °F /  23.7 °C 70.9 °F /  21.6 °C 30in /  1015.8hPa NNE 1.3mph /  2.1km/h 2mph /  3.2km/h 88% 0in /  0.0mm
04:14 74.5 °F /  23.6 °C 70.5 °F /  21.4 °C 30in /  1015.8hPa Calm   2.3mph /  3.7km/h 87.3% 0in /  0.0mm
04:19 74.5 °F /  23.6 °C 70.3 °F /  21.3 °C 30in /  1015.8hPa Calm   2.9mph /  4.7km/h 87% 0in /  0.0mm
04:24 74.3 °F /  23.5 °C 70.2 °F /  21.2 °C 30in /  1015.7hPa Calm   4.7mph /  7.6km/h 87% 0in /  0.0mm
04:29 74.1 °F /  23.4 °C 70 °F /  21.1 °C 30in /  1015.7hPa NE 0.7mph /  1.2km/h 5mph /  8km/h 87% 0in /  0.0mm
04:34 74.1 °F /  23.4 °C 70 °F /  21.1 °C 30in /  1015.7hPa NE 2.9mph /  4.7km/h 5mph /  8km/h 87% 0in /  0.0mm
04:39 74.1 °F /  23.4 °C 70.2 °F /  21.2 °C 30in /  1015.7hPa NE 2.7mph /  4.4km/h 5mph /  8km/h 87.7% 0in /  0.0mm
04:44 73.9 °F /  23.3 °C 70.2 °F /  21.2 °C 30in /  1015.7hPa NE 2.4mph /  3.9km/h 3mph /  4.8km/h 88% 0in /  0.0mm
04:49 73.9 °F /  23.3 °C 70.2 °F /  21.2 °C 30in /  1015.7hPa North 1.8mph /  2.9km/h 3.5mph /  5.6km/h 88% 0in /  0.0mm
04:54 73.9 °F /  23.3 °C 69.8 °F /  21 °C 30in /  1015.7hPa Calm   3.5mph /  5.6km/h 87.2% 0in /  0.0mm
04:59 73.9 °F /  23.3 °C 69.8 °F /  21 °C 30in /  1015.7hPa NNE 0.4mph /  0.7km/h 3mph /  4.8km/h 87% 0in /  0.0mm
05:04 73.8 °F /  23.2 °C 69.6 °F /  20.9 °C 30in /  1015.7hPa NNE 1.4mph /  2.2km/h 2.9mph /  4.7km/h 87% 0in /  0.0mm
05:09 73.8 °F /  23.2 °C 70 °F /  21.1 °C 30in /  1015.6hPa NNE 1.4mph /  2.2km/h 3mph /  4.8km/h 88% 0in /  0.0mm
05:14 73.8 °F /  23.2 °C 69.6 °F /  20.9 °C 30in /  1015.6hPa NNE 1.4mph /  2.2km/h 3.5mph /  5.6km/h 87.3% 0in /  0.0mm
05:19 73.8 °F /  23.2 °C 69.6 °F /  20.9 °C 30in /  1015.6hPa North 1.4mph /  2.2km/h 3.5mph /  5.6km/h 87% 0in /  0.0mm
05:24 73.8 °F /  23.2 °C 69.6 °F /  20.9 °C 30in /  1015.6hPa North 1.4mph /  2.2km/h 3mph /  4.8km/h 87% 0in /  0.0mm
05:29 73.8 °F /  23.2 °C 69.6 °F /  20.9 °C 30in /  1015.6hPa North 1.4mph /  2.2km/h 3mph /  4.8km/h 87% 0in /  0.0mm
05:34 73.8 °F /  23.2 °C 69.4 °F /  20.8 °C 30in /  1015.6hPa North 1.4mph /  2.2km/h   86.6% 0in /  0.0mm
05:39 73.6 °F /  23.1 °C 69.1 °F /  20.6 °C 30in /  1015.6hPa North 1mph /  1.6km/h   86% 0in /  0.0mm
05:44 73.4 °F /  23 °C 68.9 °F /  20.5 °C 30in /  1015.6hPa Calm   3.5mph /  5.6km/h 85.6% 0in /  0.0mm
05:49 73.2 °F /  22.9 °C 68.4 °F /  20.2 °C 30in /  1015.7hPa Este 0.4mph /  0.7km/h 3.6mph /  5.8km/h 84.8% 0in /  0.0mm
05:54 73 °F /  22.8 °C 68.2 °F /  20.1 °C 30in /  1015.7hPa Este 1.8mph /  2.9km/h 4mph /  6.4km/h 84.9% 0in /  0.0mm
05:59 73 °F /  22.8 °C 68.4 °F /  20.2 °C 30in /  1015.7hPa Este 1.2mph /  2km/h 2mph /  3.2km/h 85% 0in /  0.0mm
06:04 73 °F /  22.8 °C 68.4 °F /  20.2 °C 30in /  1015.7hPa Calm   3mph /  4.8km/h 85% 0in /  0.0mm
06:09 73 °F /  22.8 °C 68 °F /  20 °C 30in /  1015.7hPa ESE 0.5mph /  0.8km/h 4.6mph /  7.4km/h 84.3% 0in /  0.0mm
06:14 73 °F /  22.8 °C 67.6 °F /  19.8 °C 30in /  1015.7hPa ESE 2mph /  3.2km/h 5mph /  8km/h 83.1% 0in /  0.0mm
06:19 73 °F /  22.8 °C 67.5 °F /  19.7 °C 30in /  1015.8hPa ESE 1.9mph /  3.1km/h 3mph /  4.8km/h 83% 0in /  0.0mm
06:24 73 °F /  22.8 °C 67.6 °F /  19.8 °C 30in /  1015.8hPa ESE 1.8mph /  2.9km/h 2mph /  3.2km/h 83% 0in /  0.0mm
06:29 73 °F /  22.8 °C 67.6 °F /  19.8 °C 30in /  1015.8hPa ESE 1.4mph /  2.2km/h   83% 0in /  0.0mm
06:34 73 °F /  22.8 °C 67.6 °F /  19.8 °C 30in /  1015.9hPa Calm   3.6mph /  5.8km/h 83% 0in /  0.0mm
06:39 73 °F /  22.8 °C 67.3 °F /  19.6 °C 30in /  1015.9hPa ENE 0.4mph /  0.7km/h 4.6mph /  7.4km/h 82.4% 0in /  0.0mm
06:44 72.7 °F /  22.6 °C 67.1 °F /  19.5 °C 30in /  1015.9hPa Este 1.8mph /  2.9km/h 5mph /  8km/h 82.4% 0in /  0.0mm
06:49 72.7 °F /  22.6 °C 67.1 °F /  19.5 °C 30in /  1016.0hPa ESE 2mph /  3.2km/h 5mph /  8km/h 83% 0in /  0.0mm
06:54 72.7 °F /  22.6 °C 67.3 °F /  19.6 °C 30in /  1016.0hPa ESE 2.4mph /  3.9km/h 3mph /  4.8km/h 83.4% 0in /  0.0mm
06:59 72.7 °F /  22.6 °C 67.6 °F /  19.8 °C 30in /  1016.0hPa ESE 1.7mph /  2.7km/h 4.6mph /  7.4km/h 84% 0in /  0.0mm
07:04 72.9 °F /  22.7 °C 67.5 °F /  19.7 °C 30in /  1016.1hPa Calm   5mph /  8km/h 83.8% 0in /  0.0mm
07:09 72.9 °F /  22.7 °C 67.6 °F /  19.8 °C 30in /  1016.1hPa Este 0.5mph /  0.8km/h 3mph /  4.8km/h 83.7% 0in /  0.0mm
07:14 72.9 °F /  22.7 °C 67.5 °F /  19.7 °C 30in /  1016.1hPa Este 1.8mph /  2.9km/h 3mph /  4.8km/h 83% 0in /  0.0mm
07:19 72.9 °F /  22.7 °C 67.5 °F /  19.7 °C 30in /  1016.2hPa Este 1.4mph /  2.2km/h 2.9mph /  4.7km/h 83% 0in /  0.0mm
07:24 72.7 °F /  22.6 °C 67.3 °F /  19.6 °C 30in /  1016.2hPa Calm   3mph /  4.8km/h 83% 0in /  0.0mm
07:29 72.7 °F /  22.6 °C 67.5 °F /  19.7 °C 30in /  1016.2hPa Este 0.5mph /  0.8km/h 3.6mph /  5.8km/h 83.8% 0in /  0.0mm
07:34 72.7 °F /  22.6 °C 67.5 °F /  19.7 °C 30in /  1016.3hPa NE 1.8mph /  2.9km/h 4mph /  6.4km/h 83.6% 0in /  0.0mm
07:39 72.5 °F /  22.5 °C 67.3 °F /  19.6 °C 30in /  1016.3hPa ENE 1.9mph /  3km/h 4mph /  6.4km/h 83.9% 0in /  0.0mm
07:44 72.3 °F /  22.4 °C 67.3 °F /  19.6 °C 30in /  1016.3hPa ENE 2mph /  3.2km/h 4.6mph /  7.4km/h 84% 0in /  0.0mm
07:49 72.1 °F /  22.3 °C 66.9 °F /  19.4 °C 30in /  1016.5hPa Este 2.1mph /  3.4km/h 5mph /  8km/h 84% 0in /  0.0mm
07:54 72.1 °F /  22.3 °C 66.9 °F /  19.4 °C 30in /  1016.5hPa Este 2.4mph /  3.9km/h 4.6mph /  7.4km/h 84% 0in /  0.0mm
07:59 72.1 °F /  22.3 °C 66.9 °F /  19.4 °C 30in /  1016.5hPa Este 2.4mph /  3.9km/h 5mph /  8km/h 84% 0in /  0.0mm
08:04 72.1 °F /  22.3 °C 67.1 °F /  19.5 °C 30in /  1016.6hPa Este 2.4mph /  3.9km/h 5mph /  8km/h 84% 0in /  0.0mm
08:09 72.5 °F /  22.5 °C 67.3 °F /  19.6 °C 30in /  1016.6hPa Este 2.2mph /  3.6km/h 3mph /  4.8km/h 84% 0in /  0.0mm
08:14 72.9 °F /  22.7 °C 67.6 °F /  19.8 °C 30in /  1016.6hPa ESE 1.8mph /  2.9km/h 4.6mph /  7.4km/h 84% 0in /  0.0mm
08:19 73 °F /  22.8 °C 67.6 °F /  19.8 °C 30in /  1016.7hPa ESE 1.9mph /  3km/h 5mph /  8km/h 83.2% 0in /  0.0mm
08:24 73.2 °F /  22.9 °C 67.6 °F /  19.8 °C 30in /  1016.7hPa SE 2mph /  3.2km/h 3.6mph /  5.8km/h 82.9% 0in /  0.0mm
08:29 73.8 °F /  23.2 °C 67.8 °F /  19.9 °C 30in /  1016.7hPa SE 2mph /  3.2km/h 4mph /  6.4km/h 82% 0in /  0.0mm
08:34 74.1 °F /  23.4 °C 68.2 °F /  20.1 °C 30in /  1016.8hPa SE 2mph /  3.2km/h 4mph /  6.4km/h 82% 0in /  0.0mm
08:39 74.7 °F /  23.7 °C 68.4 °F /  20.2 °C 30in /  1016.8hPa SSO 2.1mph /  3.4km/h 5.2mph /  8.4km/h 81% 0in /  0.0mm
08:44 74.8 °F /  23.8 °C 68.5 °F /  20.3 °C 30in /  1016.8hPa SSO 2.4mph /  3.9km/h 5mph /  8km/h 81% 0in /  0.0mm
08:49 74.8 °F /  23.8 °C 68.7 °F /  20.4 °C 30in /  1016.9hPa SSO 2.3mph /  3.7km/h 5mph /  8km/h 81% 0in /  0.0mm
08:54 75.2 °F /  24 °C 68.7 °F /  20.4 °C 30in /  1016.9hPa SSO 2mph /  3.2km/h 5mph /  8km/h 80.4% 0in /  0.0mm
08:59 75.4 °F /  24.1 °C 68.9 °F /  20.5 °C 30in /  1016.9hPa SSO 2.1mph /  3.4km/h 5mph /  8km/h 80% 0in /  0.0mm
09:04 75.7 °F /  24.3 °C 69.1 °F /  20.6 °C 30in /  1016.9hPa Sur 2.4mph /  3.9km/h 5mph /  8km/h 79.9% 0in /  0.0mm
09:09 76.1 °F /  24.5 °C 69.1 °F /  20.6 °C 30in /  1016.9hPa SE 2.3mph /  3.7km/h 5mph /  8km/h 79.1% 0in /  0.0mm
09:14 76.6 °F /  24.8 °C 69.4 °F /  20.8 °C 30in /  1016.9hPa SE 2mph /  3.2km/h 5mph /  8km/h 78.8% 0in /  0.0mm
09:19 77.2 °F /  25.1 °C 69.6 °F /  20.9 °C 30in /  1016.9hPa ESE 1.9mph /  3km/h 3.5mph /  5.6km/h 77.3% 0in /  0.0mm
09:24 77.7 °F /  25.4 °C 69.6 °F /  20.9 °C 30in /  1016.9hPa ESE 1.4mph /  2.2km/h 4mph /  6.4km/h 76.2% 0in /  0.0mm
09:29 78.3 °F /  25.7 °C 69.6 °F /  20.9 °C 30in /  1016.9hPa ENE 1.6mph /  2.5km/h 5mph /  8km/h 75% 0in /  0.0mm
09:34 78.4 °F /  25.8 °C 69.8 °F /  21 °C 30in /  1017.0hPa ENE 2mph /  3.2km/h 5.9mph /  9.5km/h 74.9% 0in /  0.0mm
09:39 78.4 °F /  25.8 °C 69.4 °F /  20.8 °C 30in /  1017.0hPa ENE 2.2mph /  3.6km/h 6mph /  9.7km/h 74% 0in /  0.0mm
09:44 78.4 °F /  25.8 °C 69.8 °F /  21 °C 30in /  1017.0hPa ENE 2.9mph /  4.7km/h 5mph /  8km/h 74.6% 0in /  0.0mm
09:49 78.8 °F /  26 °C 70.2 °F /  21.2 °C 30in /  1017.0hPa ENE 2.7mph /  4.3km/h 5.8mph /  9.3km/h 74.8% 0in /  0.0mm
09:54 79 °F /  26.1 °C 70 °F /  21.1 °C 30in /  1016.9hPa NNE 2mph /  3.2km/h 6.2mph /  10km/h 74% 0in /  0.0mm
09:59 78.6 °F /  25.9 °C 70 °F /  21.1 °C 30in /  1016.9hPa North 2.3mph /  3.7km/h 6mph /  9.7km/h 75% 0in /  0.0mm
10:04 78.8 °F /  26 °C 70.5 °F /  21.4 °C 30in /  1017.0hPa North 2.9mph /  4.7km/h 6mph /  9.7km/h 75.6% 0in /  0.0mm
10:09 79 °F /  26.1 °C 70.5 °F /  21.4 °C 30in /  1017.0hPa NNE 2.9mph /  4.7km/h 6mph /  9.7km/h 75.3% 0in /  0.0mm
10:14 79.2 °F /  26.2 °C 70.5 °F /  21.4 °C 30in /  1017.0hPa NE 2.9mph /  4.7km/h 6.2mph /  10km/h 75% 0in /  0.0mm
10:19 79.2 °F /  26.2 °C 70.5 °F /  21.4 °C 30in /  1017.0hPa ENE 2.9mph /  4.7km/h 6mph /  9.7km/h 75% 0in /  0.0mm
10:24 79.2 °F /  26.2 °C 70.5 °F /  21.4 °C 30in /  1016.9hPa NNE 3.1mph /  5km/h 5.9mph /  9.5km/h 75% 0in /  0.0mm
10:29 79.2 °F /  26.2 °C 70.5 °F /  21.4 °C 30in /  1016.9hPa NO 2.9mph /  4.7km/h 6mph /  9.7km/h 75% 0in /  0.0mm
10:34 79.3 °F /  26.3 °C 70.7 °F /  21.5 °C 30in /  1016.9hPa NNO 2.4mph /  3.9km/h 6mph /  9.7km/h 75% 0in /  0.0mm
10:39 79.3 °F /  26.3 °C 70.7 °F /  21.5 °C 30in /  1016.8hPa NE 2.5mph /  4.1km/h 6.2mph /  10km/h 74.9% 0in /  0.0mm
10:44 79.5 °F /  26.4 °C 70.7 °F /  21.5 °C 30in /  1016.8hPa NE 2.9mph /  4.7km/h 6mph /  9.7km/h 74.3% 0in /  0.0mm
10:49 79.9 °F /  26.6 °C 70.5 °F /  21.4 °C 30in /  1016.8hPa North 2.9mph /  4.7km/h 6mph /  9.7km/h 73.3% 0in /  0.0mm
10:54 80.1 °F /  26.7 °C 70.7 °F /  21.5 °C 30in /  1016.8hPa North 3.1mph /  5km/h 6mph /  9.7km/h 73.1% 0in /  0.0mm
10:59 80.4 °F /  26.9 °C 70.9 °F /  21.6 °C 30in /  1016.8hPa North 3mph /  4.9km/h 5.9mph /  9.5km/h 72.5% 0in /  0.0mm
11:04 80.8 °F /  27.1 °C 70.2 °F /  21.2 °C 30in /  1016.8hPa NO 2.9mph /  4.7km/h 6.2mph /  10km/h 70.3% 0in /  0.0mm
11:09 81 °F /  27.2 °C 70.3 °F /  21.3 °C 30in /  1016.8hPa NO 2.9mph /  4.7km/h 6.9mph /  11.1km/h 70.1% 0in /  0.0mm
11:14 81 °F /  27.2 °C 70 °F /  21.1 °C 30in /  1016.8hPa ENE 3.1mph /  5km/h 9.2mph /  14.8km/h 69.3% 0in /  0.0mm
11:19 81.3 °F /  27.4 °C 69.8 °F /  21 °C 30in /  1016.8hPa North 3.4mph /  5.4km/h 9mph /  14.5km/h 68.3% 0in /  0.0mm
11:24 81.5 °F /  27.5 °C 69.8 °F /  21 °C 30in /  1016.8hPa NNE 4mph /  6.5km/h 9mph /  14.5km/h 68% 0in /  0.0mm
11:29 81.9 °F /  27.7 °C 70 °F /  21.1 °C 30in /  1016.8hPa NNE 4mph /  6.5km/h 8.1mph /  13km/h 67.3% 0in /  0.0mm
11:34 81.9 °F /  27.7 °C 69.6 °F /  20.9 °C 30in /  1016.8hPa North 4mph /  6.5km/h 9.2mph /  14.8km/h 66.4% 0in /  0.0mm
11:39 82 °F /  27.8 °C 69.3 °F /  20.7 °C 30in /  1016.7hPa NNE 4.2mph /  6.8km/h 9.2mph /  14.8km/h 65.2% 0in /  0.0mm
11:44 82.2 °F /  27.9 °C 69.1 °F /  20.6 °C 30in /  1016.7hPa NE 4.7mph /  7.6km/h 12.3mph /  19.8km/h 64.7% 0in /  0.0mm
11:49 82.6 °F /  28.1 °C 69.1 °F /  20.6 °C 30in /  1016.7hPa NNE 4.8mph /  7.8km/h 13mph /  20.9km/h 63.8% 0in /  0.0mm
11:54 82.9 °F /  28.3 °C 68.7 °F /  20.4 °C 30in /  1016.7hPa North 5.2mph /  8.4km/h 11mph /  17.7km/h 62.4% 0in /  0.0mm
11:59 83.1 °F /  28.4 °C 68.5 °F /  20.3 °C 30in /  1016.7hPa NNE 4.9mph /  7.9km/h 9.2mph /  14.8km/h 61.6% 0in /  0.0mm
12:04 83.7 °F /  28.7 °C 68.4 °F /  20.2 °C 30in /  1016.7hPa NNE 4.3mph /  6.9km/h 12.7mph /  20.4km/h 60.1% 0in /  0.0mm
12:09 83.8 °F /  28.8 °C 68.2 °F /  20.1 °C 30in /  1016.6hPa ENE 4.3mph /  6.9km/h 13mph /  20.9km/h 59.1% 0in /  0.0mm
12:14 84.6 °F /  29.2 °C 67.8 °F /  19.9 °C 30in /  1016.6hPa NNE 4.3mph /  6.9km/h 8.1mph /  13km/h 57.6% 0in /  0.0mm
12:19 84.7 °F /  29.3 °C 67.8 °F /  19.9 °C 30in /  1016.6hPa NE 4.5mph /  7.3km/h 9.2mph /  14.8km/h 56.9% 0in /  0.0mm
12:24 84.9 °F /  29.4 °C 67.6 °F /  19.8 °C 30in /  1016.4hPa NNE 5.2mph /  8.4km/h 9mph /  14.5km/h 56.1% 0in /  0.0mm
12:29 85.3 °F /  29.6 °C 67.3 °F /  19.6 °C 30in /  1016.4hPa NNE 5.2mph /  8.4km/h 11.5mph /  18.5km/h 55% 0in /  0.0mm
12:34 85.6 °F /  29.8 °C 66.9 °F /  19.4 °C 30in /  1016.4hPa NE 5.2mph /  8.4km/h 12mph /  19.3km/h 53.9% 0in /  0.0mm
12:39 86.2 °F /  30.1 °C 67.3 °F /  19.6 °C 30in /  1016.2hPa NE 5mph /  8km/h 9.2mph /  14.8km/h 53.6% 0in /  0.0mm
12:44 86.7 °F /  30.4 °C 66.9 °F /  19.4 °C 30in /  1016.2hPa NE 4.3mph /  6.9km/h 9.7mph /  15.6km/h 52% 0in /  0.0mm
12:49 86.9 °F /  30.5 °C 66.4 °F /  19.1 °C 30in /  1016.2hPa NE 4.6mph /  7.4km/h 10.7mph /  17.2km/h 50.6% 0in /  0.0mm
12:54 87.1 °F /  30.6 °C 66.6 °F /  19.2 °C 30in /  1016.0hPa NNE 5.4mph /  8.7km/h 11mph /  17.7km/h 50.7% 0in /  0.0mm
12:59 87.4 °F /  30.8 °C 66.9 °F /  19.4 °C 30in /  1016.0hPa NNE 5.2mph /  8.3km/h 10mph /  16.1km/h 50.8% 0in /  0.0mm
13:04 87.6 °F /  30.9 °C 65.7 °F /  18.7 °C 30in /  1016.0hPa NE 4.7mph /  7.6km/h 11.8mph /  19km/h 48.5% 0in /  0.0mm
13:09 87.6 °F /  30.9 °C 65.8 °F /  18.8 °C 30in /  1015.8hPa Este 4.9mph /  7.9km/h 12mph /  19.3km/h 48.6% 0in /  0.0mm
13:14 88.2 °F /  31.2 °C 64.9 °F /  18.3 °C 30in /  1015.8hPa NE 5.4mph /  8.7km/h 13mph /  20.9km/h 46.4% 0in /  0.0mm
13:19 88.3 °F /  31.3 °C 63.5 °F /  17.5 °C 30in /  1015.8hPa NNE 5.5mph /  8.9km/h 13mph /  20.9km/h 43.7% 0in /  0.0mm
13:24 88.9 °F /  31.6 °C 63.7 °F /  17.6 °C 30in /  1015.7hPa NE 5.9mph /  9.5km/h 9.2mph /  14.8km/h 43.4% 0in /  0.0mm
13:29 89.2 °F /  31.8 °C 63.9 °F /  17.7 °C 30in /  1015.7hPa NE 5.7mph /  9.2km/h 9mph /  14.5km/h 43.2% 0in /  0.0mm
13:34 90 °F /  32.2 °C 63.9 °F /  17.7 °C 30in /  1015.7hPa NNE 5.2mph /  8.4km/h 10.4mph /  16.7km/h 42.2% 0in /  0.0mm
13:39 90.1 °F /  32.3 °C 63.9 °F /  17.7 °C 30in /  1015.5hPa ENE 5mph /  8km/h 10mph /  16.1km/h 41.8% 0in /  0.0mm
13:44 90.7 °F /  32.6 °C 62.1 °F /  16.7 °C 30in /  1015.5hPa Este 4.3mph /  6.9km/h 9.2mph /  14.8km/h 38.7% 0in /  0.0mm
13:49 91 °F /  32.8 °C 61 °F /  16.1 °C 30in /  1015.5hPa Este 4.3mph /  6.9km/h 9mph /  14.5km/h 36.7% 0in /  0.0mm
13:54 91.4 °F /  33 °C 61.2 °F /  16.2 °C 30in /  1015.3hPa Este 4.3mph /  6.9km/h 8.7mph /  14km/h 36.6% 0in /  0.0mm
13:59 91.8 °F /  33.2 °C 61 °F /  16.1 °C 30in /  1015.3hPa Sur 4.3mph /  6.9km/h 9.2mph /  14.8km/h 36% 0in /  0.0mm
14:04 91.8 °F /  33.2 °C 61 °F /  16.1 °C 30in /  1015.3hPa OSO 4.3mph /  6.9km/h 9mph /  14.5km/h 36% 0in /  0.0mm
14:09 91.9 °F /  33.3 °C 62.6 °F /  17 °C 30in /  1015.2hPa SE 4mph /  6.4km/h 17mph /  27.4km/h 37.8% 0in /  0.0mm
14:14 91.8 °F /  33.2 °C 63.5 °F /  17.5 °C 30in /  1015.2hPa SSE 3.1mph /  5km/h 17.3mph /  27.8km/h 39.2% 0in /  0.0mm
14:19 91.6 °F /  33.1 °C 63.5 °F /  17.5 °C 30in /  1015.2hPa SSE 4.5mph /  7.3km/h 14mph /  22.5km/h 39.7% 0in /  0.0mm
14:24 91.6 °F /  33.1 °C 63.7 °F /  17.6 °C 30in /  1015.1hPa SE 8.5mph /  13.7km/h 12mph /  19.3km/h 40% 0in /  0.0mm
14:29 91.8 °F /  33.2 °C 63.9 °F /  17.7 °C 30in /  1015.1hPa ESE 8.1mph /  13km/h 13mph /  20.9km/h 40% 0in /  0.0mm
14:34 91.8 °F /  33.2 °C 63.5 °F /  17.5 °C 30in /  1015.1hPa SE 6.9mph /  11.1km/h 17.3mph /  27.8km/h 39.2% 0in /  0.0mm
14:39 91.6 °F /  33.1 °C 63 °F /  17.2 °C 30in /  1015.1hPa SE 7.5mph /  12.1km/h 17mph /  27.4km/h 38.9% 0in /  0.0mm
14:44 91.6 °F /  33.1 °C 63 °F /  17.2 °C 30in /  1015.1hPa ESE 9.2mph /  14.8km/h 17.8mph /  28.6km/h 38.9% 0in /  0.0mm
14:49 91.6 °F /  33.1 °C 62.8 °F /  17.1 °C 30in /  1015.1hPa ESE 9.3mph /  15km/h 18.4mph /  29.6km/h 38.7% 0in /  0.0mm
14:54 91.8 °F /  33.2 °C 62.8 °F /  17.1 °C 30in /  1014.9hPa SE 9.7mph /  15.6km/h 17mph /  27.4km/h 38.5% 0in /  0.0mm
14:59 91.8 °F /  33.2 °C 62.6 °F /  17 °C 30in /  1014.9hPa ESE 9.3mph /  15km/h 17.8mph /  28.6km/h 38.1% 0in /  0.0mm
15:04 91.8 °F /  33.2 °C 62.6 °F /  17 °C 30in /  1014.9hPa ESE 8.5mph /  13.7km/h 19mph /  30.6km/h 38.1% 0in /  0.0mm
15:09 91.6 °F /  33.1 °C 62.1 °F /  16.7 °C 30in /  1014.9hPa ESE 9.3mph /  14.9km/h 19mph /  30.6km/h 37.6% 0in /  0.0mm
15:14 91.6 °F /  33.1 °C 62.2 °F /  16.8 °C 30in /  1014.9hPa ESE 11.2mph /  18km/h 19mph /  30.6km/h 37.9% 0in /  0.0mm
15:19 91.6 °F /  33.1 °C 62.4 °F /  16.9 °C 30in /  1014.9hPa ESE 10.9mph /  17.5km/h 18mph /  29km/h 38% 0in /  0.0mm
15:24 91.9 °F /  33.3 °C 62.2 °F /  16.8 °C 30in /  1014.8hPa ESE 10mph /  16.1km/h 16.1mph /  25.9km/h 37.3% 0in /  0.0mm
15:29 92.1 °F /  33.4 °C 62.6 °F /  17 °C 30in /  1014.8hPa ESE 9.8mph /  15.7km/h 17.3mph /  27.8km/h 37.6% 0in /  0.0mm
15:34 91.8 °F /  33.2 °C 62.4 °F /  16.9 °C 30in /  1014.8hPa ESE 9.2mph /  14.8km/h 17.3mph /  27.8km/h 37.9% 0in /  0.0mm
15:39 91.8 °F /  33.2 °C 62.1 °F /  16.7 °C 30in /  1014.7hPa ESE 9.7mph /  15.6km/h 17.5mph /  28.2km/h 37.4% 0in /  0.0mm
15:44 91.8 °F /  33.2 °C 62.1 °F /  16.7 °C 30in /  1014.7hPa ESE 11.2mph /  18km/h 17mph /  27.4km/h 37.6% 0in /  0.0mm
15:49 91.9 °F /  33.3 °C 62.6 °F /  17 °C 30in /  1014.7hPa ESE 10.4mph /  16.8km/h 16mph /  25.7km/h 38% 0in /  0.0mm
15:54 91.9 °F /  33.3 °C 62.8 °F /  17.1 °C 30in /  1014.6hPa ESE 8.5mph /  13.7km/h 17.5mph /  28.2km/h 38% 0in /  0.0mm
15:59 91.8 °F /  33.2 °C 62.4 °F /  16.9 °C 30in /  1014.6hPa ESE 9mph /  14.5km/h 17mph /  27.4km/h 37.9% 0in /  0.0mm
16:04 91.9 °F /  33.3 °C 63.1 °F /  17.3 °C 30in /  1014.6hPa SE 10.2mph /  16.4km/h 18.4mph /  29.6km/h 38.6% 0in /  0.0mm
16:09 91.8 °F /  33.2 °C 63.1 °F /  17.3 °C 30in /  1014.3hPa SE 10.4mph /  16.8km/h 19mph /  30.6km/h 38.9% 0in /  0.0mm
16:14 91.8 °F /  33.2 °C 63.3 °F /  17.4 °C 30in /  1014.3hPa SE 11.2mph /  18km/h 19.6mph /  31.5km/h 39.1% 0in /  0.0mm
16:19 91.8 °F /  33.2 °C 63.3 °F /  17.4 °C 30in /  1014.3hPa ESE 10.9mph /  17.6km/h 20mph /  32.2km/h 39% 0in /  0.0mm
16:24 91.8 °F /  33.2 °C 63.1 °F /  17.3 °C 30in /  1014.3hPa SE 10.2mph /  16.4km/h 20mph /  32.2km/h 39% 0in /  0.0mm
16:29 91.4 °F /  33 °C 63 °F /  17.2 °C 30in /  1014.3hPa ESE 10.4mph /  16.8km/h 20.7mph /  33.3km/h 39.1% 0in /  0.0mm
16:34 91 °F /  32.8 °C 63.1 °F /  17.3 °C 30in /  1014.3hPa ESE 11.2mph /  18km/h 21mph /  33.8km/h 39.5% 0in /  0.0mm
16:39 91 °F /  32.8 °C 62.8 °F /  17.1 °C 30in /  1014.2hPa ESE 11.2mph /  18km/h 20mph /  32.2km/h 39.3% 0in /  0.0mm
16:44 91.6 °F /  33.1 °C 62.6 °F /  17 °C 30in /  1014.2hPa ESE 11.2mph /  18km/h 20mph /  32.2km/h 38.3% 0in /  0.0mm
16:49 91.2 °F /  32.9 °C 62.1 °F /  16.7 °C 30in /  1014.2hPa ESE 11.2mph /  18km/h 18.4mph /  29.6km/h 38.1% 0in /  0.0mm
16:54 91 °F /  32.8 °C 62.1 °F /  16.7 °C 30in /  1014.2hPa SE 11.2mph /  18km/h 18mph /  29km/h 38% 0in /  0.0mm
16:59 91.6 °F /  33.1 °C 62.4 °F /  16.9 °C 30in /  1014.2hPa ESE 10.8mph /  17.4km/h 16.1mph /  25.9km/h 38% 0in /  0.0mm
17:04 91.8 °F /  33.2 °C 61.9 °F /  16.6 °C 30in /  1014.2hPa SE 10mph /  16.1km/h 17.3mph /  27.8km/h 37.2% 0in /  0.0mm
17:09 91.2 °F /  32.9 °C 62.1 °F /  16.7 °C 30in /  1014.2hPa ESE 10.2mph /  16.4km/h 17.8mph /  28.6km/h 38% 0in /  0.0mm
17:14 91 °F /  32.8 °C 62.1 °F /  16.7 °C 30in /  1014.2hPa ESE 10.7mph /  17.2km/h 18.4mph /  29.6km/h 38% 0in /  0.0mm
17:19 91.2 °F /  32.9 °C 62.1 °F /  16.7 °C 30in /  1014.2hPa ESE 10.5mph /  16.9km/h 17mph /  27.4km/h 37.8% 0in /  0.0mm
17:24 91.2 °F /  32.9 °C 62.1 °F /  16.7 °C 29.9in /  1014.1hPa ESE 10mph /  16.1km/h 19.6mph /  31.5km/h 38% 0in /  0.0mm
17:29 91 °F /  32.8 °C 61.7 °F /  16.5 °C 29.9in /  1014.1hPa ESE 10.4mph /  16.7km/h 20mph /  32.2km/h 37.9% 0in /  0.0mm
17:34 90.7 °F /  32.6 °C 61.9 °F /  16.6 °C 29.9in /  1014.1hPa ESE 11.4mph /  18.4km/h 19.6mph /  31.5km/h 38.5% 0in /  0.0mm
17:39 90.5 °F /  32.5 °C 62.1 °F /  16.7 °C 29.9in /  1014.1hPa ESE 11.7mph /  18.9km/h 20mph /  32.2km/h 38.7% 0in /  0.0mm
17:44 90.1 °F /  32.3 °C 62.2 °F /  16.8 °C 29.9in /  1014.1hPa ESE 12.5mph /  20.1km/h 20mph /  32.2km/h 39.4% 0in /  0.0mm
17:49 90.1 °F /  32.3 °C 62.4 °F /  16.9 °C 29.9in /  1014.1hPa ESE 12.1mph /  19.5km/h 18.5mph /  29.8km/h 40% 0in /  0.0mm
17:54 90.1 °F /  32.3 °C 62.6 °F /  17 °C 29.9in /  1014.0hPa SE 11.2mph /  18km/h 20.8mph /  33.5km/h 40% 0in /  0.0mm
17:59 90 °F /  32.2 °C 62.4 °F /  16.9 °C 29.9in /  1014.0hPa ESE 11.2mph /  18.1km/h 21mph /  33.8km/h 40.2% 0in /  0.0mm
18:04 89.8 °F /  32.1 °C 62.8 °F /  17.1 °C 29.9in /  1014.1hPa ESE 11.4mph /  18.4km/h 19.7mph /  31.7km/h 40.9% 0in /  0.0mm
18:09 89.8 °F /  32.1 °C 63 °F /  17.2 °C 29.9in /  1014.1hPa ESE 11mph /  17.7km/h 20mph /  32.2km/h 41% 0in /  0.0mm
18:14 89.8 °F /  32.1 °C 62.8 °F /  17.1 °C 29.9in /  1014.1hPa ESE 10mph /  16.1km/h 20.8mph /  33.5km/h 41% 0in /  0.0mm
18:19 89.2 °F /  31.8 °C 62.6 °F /  17 °C 30in /  1014.2hPa ESE 10.4mph /  16.7km/h 21mph /  33.8km/h 41.2% 0in /  0.0mm
18:24 89.1 °F /  31.7 °C 63 °F /  17.2 °C 30in /  1014.2hPa ESE 11.4mph /  18.4km/h 20mph /  32.2km/h 41.8% 0in /  0.0mm
18:29 89.2 °F /  31.8 °C 63.3 °F /  17.4 °C 30in /  1014.2hPa ESE 11.4mph /  18.4km/h 18mph /  29km/h 42.3% 0in /  0.0mm
18:34 89.1 °F /  31.7 °C 63.7 °F /  17.6 °C 30in /  1014.2hPa ESE 11.4mph /  18.4km/h 17.5mph /  28.2km/h 43% 0in /  0.0mm
18:39 89.1 °F /  31.7 °C 63.7 °F /  17.6 °C 30in /  1014.2hPa ESE 10.6mph /  17.1km/h 17mph /  27.4km/h 42.9% 0in /  0.0mm
18:44 89.2 °F /  31.8 °C 63.7 °F /  17.6 °C 30in /  1014.2hPa ESE 8.5mph /  13.7km/h 14.7mph /  23.7km/h 42.9% 0in /  0.0mm
18:49 88.9 °F /  31.6 °C 63.9 °F /  17.7 °C 30in /  1014.4hPa ESE 8.7mph /  14km/h 17.5mph /  28.2km/h 43.5% 0in /  0.0mm
18:54 88.3 °F /  31.3 °C 63.9 °F /  17.7 °C 30in /  1014.4hPa ESE 9.2mph /  14.8km/h 17mph /  27.4km/h 44.3% 0in /  0.0mm
18:59 88.2 °F /  31.2 °C 64 °F /  17.8 °C 30in /  1014.4hPa ESE 9.4mph /  15.1km/h 15mph /  24.1km/h 44.9% 0in /  0.0mm
19:04 88.2 °F /  31.2 °C 64 °F /  17.8 °C 30in /  1014.4hPa ESE 9.7mph /  15.6km/h 16.8mph /  27km/h 45% 0in /  0.0mm
19:09 88.2 °F /  31.2 °C 64.6 °F /  18.1 °C 30in /  1014.4hPa ESE 9.4mph /  15.2km/h 17.3mph /  27.8km/h 45.8% 0in /  0.0mm
19:14 88 °F /  31.1 °C 64.6 °F /  18.1 °C 30in /  1014.4hPa ESE 8.7mph /  14km/h 17mph /  27.4km/h 46% 0in /  0.0mm
19:19 87.8 °F /  31 °C 64.6 °F /  18.1 °C 30in /  1014.4hPa ESE 8.8mph /  14.2km/h 15.2mph /  24.5km/h 46.4% 0in /  0.0mm
19:24 87.6 °F /  30.9 °C 64.8 °F /  18.2 °C 30in /  1014.3hPa ESE 9.2mph /  14.8km/h 15mph /  24.1km/h 46.7% 0in /  0.0mm
19:29 87.6 °F /  30.9 °C 64.8 °F /  18.2 °C 30in /  1014.3hPa ESE 8.4mph /  13.6km/h 12.7mph /  20.4km/h 46.9% 0in /  0.0mm
19:34 87.4 °F /  30.8 °C 64.8 °F /  18.2 °C 30in /  1014.3hPa ESE 6.4mph /  10.3km/h 13.8mph /  22.2km/h 46.8% 0in /  0.0mm
19:39 87.3 °F /  30.7 °C 64.6 °F /  18.1 °C 30in /  1014.3hPa ESE 6.7mph /  10.8km/h 14mph /  22.5km/h 47% 0in /  0.0mm
19:44 87.3 °F /  30.7 °C 64.9 °F /  18.3 °C 30in /  1014.3hPa ESE 7.6mph /  12.2km/h 15mph /  24.1km/h 47.5% 0in /  0.0mm
19:49 87.3 °F /  30.7 °C 65.1 °F /  18.4 °C 30in /  1014.3hPa ESE 7.4mph /  11.9km/h 15mph /  24.1km/h 48% 0in /  0.0mm
19:54 87.1 °F /  30.6 °C 64.9 °F /  18.3 °C 30in /  1014.3hPa ESE 6.9mph /  11.1km/h 13.8mph /  22.2km/h 48% 0in /  0.0mm
19:59 86.7 °F /  30.4 °C 64.8 °F /  18.2 °C 30in /  1014.3hPa ESE 7.1mph /  11.4km/h 14mph /  22.5km/h 48% 0in /  0.0mm
20:04 86.5 °F /  30.3 °C 64.6 °F /  18.1 °C 30in /  1014.5hPa ESE 7.6mph /  12.2km/h 14mph /  22.5km/h 48% 0in /  0.0mm
20:09 86.5 °F /  30.3 °C 64.8 °F /  18.2 °C 30in /  1014.5hPa ESE 7.3mph /  11.7km/h 14mph /  22.5km/h 48.4% 0in /  0.0mm
20:14 86.4 °F /  30.2 °C 64.8 °F /  18.2 °C 30in /  1014.5hPa ESE 6.4mph /  10.3km/h 15mph /  24.1km/h 48.5% 0in /  0.0mm
20:19 86 °F /  30 °C 64.6 °F /  18.1 °C 30in /  1014.6hPa ESE 7.1mph /  11.5km/h 15mph /  24.1km/h 49% 0in /  0.0mm
20:24 85.6 °F /  29.8 °C 64.8 °F /  18.2 °C 30in /  1014.6hPa ESE 9.2mph /  14.8km/h 15mph /  24.1km/h 49.9% 0in /  0.0mm
20:29 85.6 °F /  29.8 °C 64.6 °F /  18.1 °C 30in /  1014.6hPa ESE 8.6mph /  13.8km/h 12.7mph /  20.4km/h 49.5% 0in /  0.0mm
20:34 85.5 °F /  29.7 °C 64.6 °F /  18.1 °C 30in /  1014.8hPa ESE 6.9mph /  11.1km/h 13.8mph /  22.2km/h 49.9% 0in /  0.0mm
20:39 85.3 °F /  29.6 °C 64.9 °F /  18.3 °C 30in /  1014.8hPa ESE 7.1mph /  11.4km/h 14mph /  22.5km/h 50.7% 0in /  0.0mm
20:44 84.9 °F /  29.4 °C 64.8 °F /  18.2 °C 30in /  1014.8hPa Este 7.6mph /  12.2km/h 12mph /  19.3km/h 51% 0in /  0.0mm
20:49 84.7 °F /  29.3 °C 64.8 °F /  18.2 °C 30in /  1014.8hPa ESE 7.1mph /  11.5km/h 11mph /  17.7km/h 51.4% 0in /  0.0mm
20:54 84.6 °F /  29.2 °C 64.8 °F /  18.2 °C 30in /  1014.7hPa Este 5.9mph /  9.5km/h 12.7mph /  20.4km/h 51.9% 0in /  0.0mm
20:59 84.4 °F /  29.1 °C 64.8 °F /  18.2 °C 30in /  1014.7hPa Este 5.9mph /  9.5km/h 13mph /  20.9km/h 52% 0in /  0.0mm
21:04 84 °F /  28.9 °C 64.6 °F /  18.1 °C 30in /  1014.9hPa ENE 5.9mph /  9.5km/h 9.2mph /  14.8km/h 52.1% 0in /  0.0mm
21:09 83.8 °F /  28.8 °C 64.9 °F /  18.3 °C 30in /  1014.9hPa NE 5.6mph /  9km/h 9mph /  14.5km/h 53% 0in /  0.0mm
21:14 83.7 °F /  28.7 °C 65.3 °F /  18.5 °C 30in /  1014.9hPa NE 4.7mph /  7.6km/h 8mph /  12.9km/h 53.9% 0in /  0.0mm
21:19 83.3 °F /  28.5 °C 65.3 °F /  18.5 °C 30in /  1014.9hPa NE 4.5mph /  7.3km/h 7mph /  11.3km/h 54.6% 0in /  0.0mm
21:24 82.9 °F /  28.3 °C 65.1 °F /  18.4 °C 30in /  1014.9hPa NE 4mph /  6.5km/h 8.5mph /  13.7km/h 55.1% 0in /  0.0mm
21:29 82.6 °F /  28.1 °C 65.3 °F /  18.5 °C 30in /  1014.9hPa NE 4.2mph /  6.8km/h 10.4mph /  16.7km/h 56% 0in /  0.0mm
21:34 82.2 °F /  27.9 °C 65.5 °F /  18.6 °C 30in /  1015.1hPa NE 4.7mph /  7.6km/h 10mph /  16.1km/h 56.9% 0in /  0.0mm
21:39 81.9 °F /  27.7 °C 65.3 °F /  18.5 °C 30in /  1015.1hPa NE 5.2mph /  8.3km/h 10.4mph /  16.7km/h 57.3% 0in /  0.0mm
21:44 81.7 °F /  27.6 °C 65.7 °F /  18.7 °C 30in /  1015.1hPa NE 6.2mph /  10km/h 12.7mph /  20.4km/h 58.2% 0in /  0.0mm
21:49 81.3 °F /  27.4 °C 65.7 °F /  18.7 °C 30in /  1015.3hPa NE 6.3mph /  10.1km/h 13mph /  20.9km/h 59% 0in /  0.0mm
21:54 81.1 °F /  27.3 °C 65.8 °F /  18.8 °C 30in /  1015.3hPa NE 6.4mph /  10.3km/h 10mph /  16.1km/h 59.8% 0in /  0.0mm
21:59 81 °F /  27.2 °C 65.8 °F /  18.8 °C 30in /  1015.3hPa ENE 6.3mph /  10.1km/h 11.5mph /  18.5km/h 60% 0in /  0.0mm
22:04 80.8 °F /  27.1 °C 66 °F /  18.9 °C 30in /  1015.5hPa ENE 5.9mph /  9.5km/h 12mph /  19.3km/h 60.9% 0in /  0.0mm
22:09 80.6 °F /  27 °C 65.8 °F /  18.8 °C 30in /  1015.5hPa ENE 5.4mph /  8.7km/h 9mph /  14.5km/h 61.1% 0in /  0.0mm
22:14 80.4 °F /  26.9 °C 66.2 °F /  19 °C 30in /  1015.5hPa NE 4mph /  6.5km/h 9.2mph /  14.8km/h 62% 0in /  0.0mm
22:19 80.2 °F /  26.8 °C 66 °F /  18.9 °C 30in /  1015.6hPa ENE 4.2mph /  6.8km/h 9mph /  14.5km/h 62% 0in /  0.0mm
22:24 80.1 °F /  26.7 °C 66.4 °F /  19.1 °C 30in /  1015.6hPa ENE 4.7mph /  7.6km/h 8.1mph /  13km/h 63% 0in /  0.0mm
22:29 79.9 °F /  26.6 °C 66.2 °F /  19 °C 30in /  1015.6hPa ENE 4.6mph /  7.4km/h 9.2mph /  14.8km/h 63% 0in /  0.0mm
22:34 79.9 °F /  26.6 °C 66.2 °F /  19 °C 30in /  1015.7hPa NE 4.3mph /  6.9km/h 11.5mph /  18.5km/h 63.3% 0in /  0.0mm
22:39 79.3 °F /  26.3 °C 66.4 °F /  19.1 °C 30in /  1015.7hPa NE 4.8mph /  7.8km/h 12mph /  19.3km/h 64.3% 0in /  0.0mm
22:44 79.3 °F /  26.3 °C 66.6 °F /  19.2 °C 30in /  1015.7hPa NE 6.2mph /  10km/h 10mph /  16.1km/h 65% 0in /  0.0mm
22:49 79.2 °F /  26.2 °C 66.4 °F /  19.1 °C 30in /  1015.9hPa NE 6mph /  9.6km/h 9.7mph /  15.6km/h 65% 0in /  0.0mm
22:54 79.2 °F /  26.2 °C 66.4 °F /  19.1 °C 30in /  1015.9hPa NE 5.4mph /  8.7km/h 10mph /  16.1km/h 65% 0in /  0.0mm
22:59 79.2 °F /  26.2 °C 66.6 °F /  19.2 °C 30in /  1015.9hPa NE 5.5mph /  8.9km/h 9.2mph /  14.8km/h 65.6% 0in /  0.0mm
23:04 79 °F /  26.1 °C 66.6 °F /  19.2 °C 30in /  1016.0hPa NE 5.9mph /  9.5km/h 9mph /  14.5km/h 66% 0in /  0.0mm
23:09 78.8 °F /  26 °C 66.9 °F /  19.4 °C 30in /  1016.0hPa NE 5.6mph /  9km/h 9.2mph /  14.8km/h 66.7% 0in /  0.0mm
23:14 78.8 °F /  26 °C 66.9 °F /  19.4 °C 30in /  1016.0hPa NE 4.7mph /  7.6km/h 10.4mph /  16.7km/h 67.2% 0in /  0.0mm
23:19 78.6 °F /  25.9 °C 67.3 °F /  19.6 °C 30in /  1016.0hPa NE 5mph /  8.1km/h 10mph /  16.1km/h 68% 0in /  0.0mm
23:24 78.4 °F /  25.8 °C 67.5 °F /  19.7 °C 30in /  1016.0hPa NE 5.9mph /  9.5km/h 9.7mph /  15.6km/h 69% 0in /  0.0mm
23:29 78.4 °F /  25.8 °C 67.5 °F /  19.7 °C 30in /  1016.0hPa NE 5.8mph /  9.3km/h 10mph /  16.1km/h 69.3% 0in /  0.0mm
23:34 78.3 °F /  25.7 °C 67.8 °F /  19.9 °C 30in /  1016.0hPa NE 5.4mph /  8.7km/h 9.7mph /  15.6km/h 70.4% 0in /  0.0mm
23:39 78.1 °F /  25.6 °C 67.8 °F /  19.9 °C 30in /  1016.0hPa NE 5.4mph /  8.7km/h 10mph /  16.1km/h 71% 0in /  0.0mm
23:44 77.9 °F /  25.5 °C 68 °F /  20 °C 30in /  1016.0hPa NE 5.4mph /  8.7km/h 7mph /  11.3km/h 71.6% 0in /  0.0mm
23:49 77.7 °F /  25.4 °C 68 °F /  20 °C 30in /  1016.0hPa NE 5.1mph /  8.2km/h 8.1mph /  13km/h 72% 0in /  0.0mm
23:54 77.7 °F /  25.4 °C 68.2 °F /  20.1 °C 30in /  1016.0hPa NE 4.3mph /  6.9km/h 8mph /  12.9km/h 72.5% 0in /  0.0mm
23:59 77.5 °F /  25.3 °C 68.2 °F /  20.1 °C 30in /  1016.0hPa NE 4.1mph /  6.6km/h 6.2mph /  10km/h 73% 0in /  0.0mm
Murcia-Puente Tocinos, España
Compliments of Weather Underground - 3 mb

La estación de MeteoMurcia.com, publica sus datos en los siguientes proyectos:

Weather Underground PWS IMURCIAP2 Meteoclimatic www.awekas.at

W3Counter
Web Analytics